VIR99 EGPH-EGCC
Flight info
| Callsign | VIR99 |
|---|---|
| Flight time | N/A |
| Altitude | 24000 |
| Route | GOSAM P600 FENIK/N0426F250 L612 LAKEY |
| Aircraft | A339/H-SADE1E2E3GHIJ3J5M1P2RWXY/LB2D1 |
Departure
| Time | N/A |
|---|---|
| Airport | Edinburgh Airport (EGPH) |
Arrival
| Time | 2026-05-03 20:50 |
|---|---|
| Airport | Manchester Airport (EGCC) |
| Time | Latitude | Longitude | Altitude | Speed | Heading |
|---|---|---|---|---|---|
| 2026-05-03 20:15 | 55.93110 | -4.01223 | 18670 ft | 374 kts | 239° |
| 2026-05-03 20:15 | 55.91424 | -4.04772 | 19280 ft | 379 kts | 224° |
| 2026-05-03 20:15 | 55.89343 | -4.07701 | 19849 ft | 384 kts | 217° |
| 2026-05-03 20:15 | 55.87113 | -4.10367 | 20422 ft | 388 kts | 214° |
| 2026-05-03 20:16 | 55.84864 | -4.12956 | 21013 ft | 392 kts | 214° |
| 2026-05-03 20:16 | 55.82567 | -4.15623 | 21584 ft | 396 kts | 214° |
| 2026-05-03 20:16 | 55.80262 | -4.18350 | 22171 ft | 400 kts | 215° |
| 2026-05-03 20:16 | 55.77940 | -4.21126 | 22748 ft | 404 kts | 214° |
| 2026-05-03 20:17 | 55.75404 | -4.23347 | 23317 ft | 410 kts | 201° |
| 2026-05-03 20:17 | 55.72655 | -4.24810 | 23786 ft | 416 kts | 192° |
| 2026-05-03 20:17 | 55.69758 | -4.25176 | 23968 ft | 418 kts | 177° |
| 2026-05-03 20:17 | 55.66871 | -4.24239 | 24010 ft | 431 kts | 162° |
| 2026-05-03 20:18 | 55.64100 | -4.22178 | 24010 ft | 432 kts | 153° |
| 2026-05-03 20:18 | 55.61504 | -4.19671 | 24008 ft | 431 kts | 149° |
| 2026-05-03 20:18 | 55.58906 | -4.16996 | 24007 ft | 432 kts | 149° |
| 2026-05-03 20:18 | 55.56314 | -4.14337 | 24004 ft | 432 kts | 149° |
| 2026-05-03 20:19 | 55.53702 | -4.11712 | 24007 ft | 432 kts | 150° |
| 2026-05-03 20:19 | 55.51080 | -4.09124 | 24008 ft | 432 kts | 150° |
| 2026-05-03 20:19 | 55.48454 | -4.06559 | 24005 ft | 432 kts | 150° |
| 2026-05-03 20:19 | 55.45822 | -4.04003 | 24005 ft | 432 kts | 150° |
| 2026-05-03 20:20 | 55.43202 | -4.01464 | 24003 ft | 429 kts | 151° |
| 2026-05-03 20:20 | 55.40586 | -3.98934 | 23998 ft | 429 kts | 151° |
| 2026-05-03 20:20 | 55.38007 | -3.96443 | 23999 ft | 429 kts | 151° |
| 2026-05-03 20:20 | 55.35386 | -3.93915 | 23999 ft | 430 kts | 151° |
| 2026-05-03 20:21 | 55.32763 | -3.91389 | 24003 ft | 429 kts | 151° |
| 2026-05-03 20:21 | 55.30147 | -3.88874 | 23998 ft | 429 kts | 151° |
| 2026-05-03 20:21 | 55.27525 | -3.86358 | 23999 ft | 429 kts | 151° |
| 2026-05-03 20:21 | 55.24912 | -3.83856 | 23999 ft | 427 kts | 152° |
| 2026-05-03 20:22 | 55.22303 | -3.81361 | 24001 ft | 428 kts | 152° |
| 2026-05-03 20:22 | 55.19692 | -3.78863 | 23991 ft | 427 kts | 152° |
| 2026-05-03 20:22 | 55.17086 | -3.76372 | 23994 ft | 426 kts | 152° |
| 2026-05-03 20:22 | 55.14517 | -3.73923 | 23993 ft | 427 kts | 152° |
| 2026-05-03 20:23 | 55.11913 | -3.71443 | 23996 ft | 426 kts | 152° |
| 2026-05-03 20:23 | 55.09305 | -3.68964 | 23995 ft | 426 kts | 152° |
| 2026-05-03 20:23 | 55.06701 | -3.66491 | 23993 ft | 426 kts | 152° |
| 2026-05-03 20:23 | 55.04093 | -3.64018 | 23994 ft | 427 kts | 152° |
| 2026-05-03 20:24 | 55.01548 | -3.61609 | 23993 ft | 427 kts | 152° |
| 2026-05-03 20:24 | 54.98877 | -3.59084 | 23990 ft | 427 kts | 152° |
| 2026-05-03 20:24 | 54.96268 | -3.56619 | 23991 ft | 427 kts | 152° |
| 2026-05-03 20:24 | 54.93657 | -3.54156 | 23990 ft | 427 kts | 152° |
| 2026-05-03 20:25 | 54.91077 | -3.51726 | 23993 ft | 428 kts | 152° |
| 2026-05-03 20:25 | 54.88440 | -3.49251 | 23991 ft | 438 kts | 152° |
| 2026-05-03 20:25 | 54.85711 | -3.46689 | 23994 ft | 454 kts | 152° |
| 2026-05-03 20:25 | 54.82905 | -3.44059 | 23993 ft | 461 kts | 152° |
| 2026-05-03 20:26 | 54.80091 | -3.41429 | 23989 ft | 457 kts | 152° |
| 2026-05-03 20:26 | 54.77287 | -3.38809 | 23988 ft | 459 kts | 152° |
| 2026-05-03 20:26 | 54.74477 | -3.36187 | 23988 ft | 461 kts | 152° |
| 2026-05-03 20:26 | 54.71637 | -3.33623 | 23988 ft | 458 kts | 155° |
| 2026-05-03 20:27 | 54.68762 | -3.31446 | 23988 ft | 459 kts | 157° |
| 2026-05-03 20:27 | 54.65828 | -3.29258 | 23987 ft | 458 kts | 157° |
| 2026-05-03 20:27 | 54.62911 | -3.27077 | 23989 ft | 459 kts | 156° |
| 2026-05-03 20:27 | 54.59981 | -3.24885 | 23983 ft | 459 kts | 156° |
| 2026-05-03 20:28 | 54.57049 | -3.22691 | 23985 ft | 460 kts | 157° |
| 2026-05-03 20:28 | 54.54124 | -3.20505 | 23903 ft | 455 kts | 157° |
| 2026-05-03 20:28 | 54.51226 | -3.18343 | 23331 ft | 450 kts | 157° |
| 2026-05-03 20:28 | 54.48394 | -3.16231 | 22373 ft | 447 kts | 157° |
| 2026-05-03 20:29 | 54.45587 | -3.14144 | 21241 ft | 435 kts | 157° |
| 2026-05-03 20:29 | 54.42812 | -3.12086 | 20304 ft | 429 kts | 157° |
| 2026-05-03 20:29 | 54.40096 | -3.10072 | 18968 ft | 422 kts | 157° |
| 2026-05-03 20:29 | 54.37426 | -3.08093 | 17408 ft | 416 kts | 157° |
| 2026-05-03 20:30 | 54.34785 | -3.06147 | 15945 ft | 408 kts | 157° |
| 2026-05-03 20:30 | 54.32266 | -3.04292 | 15237 ft | 382 kts | 157° |
| 2026-05-03 20:30 | 54.29865 | -3.02523 | 14136 ft | 370 kts | 157° |
| 2026-05-03 20:30 | 54.27522 | -3.00801 | 12954 ft | 361 kts | 157° |
| 2026-05-03 20:31 | 54.25233 | -2.99119 | 11698 ft | 356 kts | 156° |
| 2026-05-03 20:31 | 54.23081 | -2.97259 | 10890 ft | 352 kts | 148° |
| 2026-05-03 20:31 | 54.21038 | -2.94956 | 10444 ft | 351 kts | 145° |
| 2026-05-03 20:31 | 54.19035 | -2.92669 | 10127 ft | 343 kts | 146° |
| 2026-05-03 20:32 | 54.17032 | -2.90409 | 10027 ft | 347 kts | 146° |
| 2026-05-03 20:32 | 54.15015 | -2.88146 | 9981 ft | 346 kts | 146° |
| 2026-05-03 20:32 | 54.13004 | -2.85893 | 9980 ft | 346 kts | 146° |
| 2026-05-03 20:32 | 54.10999 | -2.83649 | 9977 ft | 346 kts | 146° |
| 2026-05-03 20:33 | 54.08988 | -2.81401 | 9972 ft | 346 kts | 146° |
| 2026-05-03 20:33 | 54.06977 | -2.79155 | 9977 ft | 346 kts | 146° |
| 2026-05-03 20:33 | 54.04972 | -2.76917 | 9977 ft | 346 kts | 146° |
| 2026-05-03 20:33 | 54.02957 | -2.74670 | 9977 ft | 346 kts | 146° |
| 2026-05-03 20:34 | 54.01016 | -2.72511 | 9972 ft | 325 kts | 146° |
| 2026-05-03 20:34 | 53.99209 | -2.70503 | 9971 ft | 296 kts | 147° |
| 2026-05-03 20:34 | 53.97528 | -2.68637 | 9975 ft | 290 kts | 147° |
| 2026-05-03 20:34 | 53.95840 | -2.66762 | 9974 ft | 289 kts | 147° |
| 2026-05-03 20:35 | 53.94156 | -2.64894 | 9974 ft | 289 kts | 147° |
| 2026-05-03 20:35 | 53.92470 | -2.63026 | 9974 ft | 289 kts | 147° |
| 2026-05-03 20:35 | 53.90785 | -2.61161 | 9970 ft | 288 kts | 147° |
| 2026-05-03 20:35 | 53.89103 | -2.59302 | 9971 ft | 288 kts | 147° |
| 2026-05-03 20:36 | 53.87424 | -2.57448 | 9974 ft | 289 kts | 147° |
| 2026-05-03 20:36 | 53.85740 | -2.55592 | 9972 ft | 289 kts | 147° |
| 2026-05-03 20:36 | 53.84060 | -2.53743 | 9971 ft | 288 kts | 147° |
| 2026-05-03 20:36 | 53.82411 | -2.51929 | 9803 ft | 286 kts | 147° |
| 2026-05-03 20:37 | 53.80753 | -2.50108 | 9311 ft | 283 kts | 147° |
| 2026-05-03 20:37 | 53.79104 | -2.48296 | 8640 ft | 282 kts | 147° |
| 2026-05-03 20:37 | 53.77470 | -2.46501 | 7981 ft | 278 kts | 147° |
| 2026-05-03 20:37 | 53.75903 | -2.44784 | 7679 ft | 260 kts | 146° |
| 2026-05-03 20:38 | 53.74399 | -2.43136 | 7203 ft | 256 kts | 146° |
| 2026-05-03 20:38 | 53.72816 | -2.41400 | 7022 ft | 278 kts | 146° |
| 2026-05-03 20:38 | 53.71194 | -2.39621 | 6960 ft | 277 kts | 147° |
| 2026-05-03 20:38 | 53.69580 | -2.37855 | 6967 ft | 277 kts | 147° |
| 2026-05-03 20:39 | 53.67957 | -2.36115 | 6962 ft | 276 kts | 150° |
| 2026-05-03 20:39 | 53.66328 | -2.34413 | 6969 ft | 277 kts | 138° |
| 2026-05-03 20:39 | 53.65066 | -2.32028 | 6961 ft | 277 kts | 131° |
| 2026-05-03 20:39 | 53.63612 | -2.29936 | 6967 ft | 276 kts | 150° |
| 2026-05-03 20:40 | 53.61784 | -2.29023 | 6964 ft | 276 kts | 176° |
| 2026-05-03 20:40 | 53.59896 | -2.29509 | 6961 ft | 277 kts | 201° |
| 2026-05-03 20:40 | 53.58203 | -2.31046 | 6962 ft | 277 kts | 210° |
| 2026-05-03 20:40 | 53.56533 | -2.32652 | 6958 ft | 277 kts | 210° |
| 2026-05-03 20:41 | 53.54861 | -2.34258 | 6973 ft | 277 kts | 210° |
| 2026-05-03 20:41 | 53.53190 | -2.35863 | 6959 ft | 277 kts | 210° |
| 2026-05-03 20:41 | 53.51530 | -2.37497 | 6962 ft | 276 kts | 213° |
| 2026-05-03 20:41 | 53.50157 | -2.39736 | 6960 ft | 277 kts | 230° |
| 2026-05-03 20:42 | 53.48912 | -2.42202 | 6971 ft | 277 kts | 230° |
| 2026-05-03 20:42 | 53.47665 | -2.44663 | 6958 ft | 276 kts | 230° |
| 2026-05-03 20:42 | 53.46436 | -2.47090 | 6963 ft | 276 kts | 230° |
| 2026-05-03 20:42 | 53.45193 | -2.49547 | 6961 ft | 276 kts | 230° |
| 2026-05-03 20:43 | 53.43949 | -2.52005 | 6959 ft | 276 kts | 230° |
| 2026-05-03 20:43 | 53.42519 | -2.54130 | 6963 ft | 277 kts | 210° |
| 2026-05-03 20:43 | 53.40722 | -2.55124 | 6931 ft | 268 kts | 189° |
| 2026-05-03 20:43 | 53.38930 | -2.55639 | 6780 ft | 254 kts | 189° |
| 2026-05-03 20:44 | 53.37202 | -2.56146 | 6242 ft | 249 kts | 189° |
| 2026-05-03 20:44 | 53.35538 | -2.56645 | 5495 ft | 248 kts | 189° |
| 2026-05-03 20:44 | 53.33823 | -2.57175 | 5137 ft | 255 kts | 190° |
| 2026-05-03 20:44 | 53.32067 | -2.57689 | 5019 ft | 254 kts | 185° |
| 2026-05-03 20:45 | 53.30347 | -2.57401 | 4723 ft | 247 kts | 163° |
| 2026-05-03 20:45 | 53.28736 | -2.56433 | 4094 ft | 245 kts | 151° |
| 2026-05-03 20:45 | 53.27272 | -2.55157 | 3841 ft | 227 kts | 147° |
| 2026-05-03 20:45 | 53.26213 | -2.53418 | 3666 ft | 205 kts | 116° |
| 2026-05-03 20:46 | 53.25934 | -2.51281 | 3565 ft | 178 kts | 83° |
| 2026-05-03 20:46 | 53.26086 | -2.49363 | 3458 ft | 161 kts | 80° |
| 2026-05-03 20:46 | 53.26235 | -2.47559 | 3021 ft | 162 kts | 79° |
| 2026-05-03 20:46 | 53.26581 | -2.45820 | 2788 ft | 149 kts | 60° |
| 2026-05-03 20:47 | 53.27138 | -2.44473 | 2614 ft | 132 kts | 51° |
| 2026-05-03 20:47 | 53.27709 | -2.43332 | 2474 ft | 130 kts | 50° |
| 2026-05-03 20:47 | 53.28253 | -2.42194 | 2309 ft | 123 kts | 51° |
| 2026-05-03 20:47 | 53.28803 | -2.41071 | 2137 ft | 122 kts | 51° |
| 2026-05-03 20:48 | 53.29342 | -2.39954 | 1985 ft | 125 kts | 51° |
| 2026-05-03 20:48 | 53.29875 | -2.38854 | 1809 ft | 125 kts | 51° |
| 2026-05-03 20:48 | 53.30420 | -2.37731 | 1649 ft | 122 kts | 50° |
| 2026-05-03 20:48 | 53.30956 | -2.36622 | 1477 ft | 122 kts | 51° |
| 2026-05-03 20:49 | 53.31489 | -2.35521 | 1316 ft | 129 kts | 50° |
| 2026-05-03 20:49 | 53.32035 | -2.34394 | 1122 ft | 122 kts | 50° |
| 2026-05-03 20:49 | 53.32595 | -2.33232 | 948 ft | 127 kts | 50° |
| 2026-05-03 20:49 | 53.33136 | -2.32116 | 779 ft | 128 kts | 50° |
| 2026-05-03 20:50 | 53.33700 | -2.30975 | 602 ft | 122 kts | 50° |
| 2026-05-03 20:50 | 53.34226 | -2.29882 | 414 ft | 128 kts | 52° |
| 2026-05-03 20:50 | 53.34775 | -2.28732 | 295 ft | 122 kts | 51° |
| 2026-05-03 20:50 | 53.35192 | -2.27857 | 259 ft | 46 kts | 51° |
| 2026-05-03 20:51 | 53.35339 | -2.27575 | 256 ft | 30 kts | 47° |
| 2026-05-03 20:51 | 53.35472 | -2.27308 | 251 ft | 30 kts | 53° |
| 2026-05-03 20:51 | 53.35607 | -2.27096 | 246 ft | 20 kts | 359° |
| 2026-05-03 20:51 | 53.35710 | -2.27234 | 247 ft | 12 kts | 285° |
| 2026-05-03 20:52 | 53.35672 | -2.27338 | 248 ft | 11 kts | 235° |
| 2026-05-03 20:52 | 53.35654 | -2.27382 | 249 ft | 0 kts | 234° |
| 2026-05-03 20:52 | 53.35653 | -2.27385 | 249 ft | 1 kts | 234° |
| 2026-05-03 20:52 | 53.35650 | -2.27391 | 249 ft | 1 kts | 233° |
| 2026-05-03 20:53 | 53.35626 | -2.27441 | 250 ft | 11 kts | 232° |
| 2026-05-03 20:53 | 53.35629 | -2.27547 | 252 ft | 6 kts | 311° |
| 2026-05-03 20:53 | 53.35672 | -2.27586 | 253 ft | 8 kts | 329° |
| 2026-05-03 20:53 | 53.35730 | -2.27622 | 253 ft | 8 kts | 2° |
| 2026-05-03 20:54 | 53.35778 | -2.27557 | 252 ft | 11 kts | 42° |